Weather at Louisa County Airport/Freeman Field

Public forecast

Using degrees Fahrenheit for public forecast. Weather courtesy of forecast.io.

Current aviation weather report (METAR) for Louisa County Airport/Freeman Field

Retrieved 2020/10/26 00:35 UTC (12 minutes ago):

KLKU 260035Z AUTO 02008KT 3SM OVC003 07/07 A3021 RMK AO2 PWINO T00700068

Closest aviation forecast (TAF) to Louisa County Airport/Freeman Field

Closest forecast is Charlottesville Albemarle Airport, 24.1 nm (44.6 km) WNW. Retrieved 2020-10-26 00:33 UTC (14 minutes ago):

TAF KCHO 252330Z 2600/2624 06004KT 2SM -DZ BR SCT003 OVC005 FM261100 VRB03KT 4SM -DZ BR SCT003 OVC015 FM261800 19004KT P6SM SCT015 BKN030 FM261900 19004KT P6SM FEW015 SCT045 FM262300 VRB03KT P6SM FEW060 SCT250